Time;durP1;ratioP1;P1;durP2;ratioP2;P2;SDS_P1;SDS_P2;PMS_P1;PMS_P2;Temp;Humidity;BMP_temperature;BMP_pressure;BME280_temperature;BME280_humidity;BME280_pressure;Samples;Min_cycle;Max_cycle;Signal;HPM_P1;HPM_P2
2021/12/08 00:01:34;;;;;;;2.13;2.03;;;;;;;4.01;100.00;98230.09;5030514;28;20737;-61
2021/12/08 00:04:02;;;;;;;2.53;2.33;;;;;;;3.96;100.00;98228.50;5030460;28;20255;-59
2021/12/08 00:06:29;;;;;;;1.97;1.87;;;;;;;3.91;100.00;98240.59;5030300;28;20201;-60
2021/12/08 00:09:18;;;;;;;2.07;1.97;;;;;;;3.91;100.00;98238.03;5030344;28;20197;-59
2021/12/08 00:14:30;;;;;;;2.20;2.10;;;;;;;3.99;100.00;98248.97;5030324;28;20201;-60
2021/12/08 00:16:58;;;;;;;1.93;1.83;;;;;;;3.81;100.00;98228.88;5030266;28;20292;-59
2021/12/08 00:19:27;;;;;;;2.23;1.90;;;;;;;3.85;100.00;98249.28;5029648;28;20734;-59
2021/12/08 00:21:54;;;;;;;2.33;2.13;;;;;;;3.83;100.00;98252.78;5030178;28;20198;-58
2021/12/08 00:24:21;;;;;;;2.37;2.17;;;;;;;3.88;100.00;98250.94;5030331;28;20584;-60
2021/12/08 00:26:48;;;;;;;2.20;2.10;;;;;;;3.86;100.00;98253.53;5030095;28;20207;-59
2021/12/08 00:29:15;;;;;;;1.97;1.87;;;;;;;3.83;100.00;98258.75;5030231;28;20204;-59
2021/12/08 00:31:46;;;;;;;2.03;1.93;;;;;;;3.91;100.00;98261.13;5029932;28;20201;-59
2021/12/08 00:34:15;;;;;;;1.90;1.80;;;;;;;3.91;100.00;98256.00;5029963;28;20201;-58
2021/12/08 00:36:44;;;;;;;1.97;1.87;;;;;;;3.81;100.00;98259.66;5029784;28;20197;-59
2021/12/08 00:39:13;;;;;;;2.00;1.90;;;;;;;3.81;100.00;98254.53;5030348;28;20595;-59
2021/12/08 00:41:40;;;;;;;2.10;2.00;;;;;;;3.94;100.00;98266.22;5030116;28;20280;-58
2021/12/08 00:44:08;;;;;;;1.90;1.80;;;;;;;3.84;100.00;98244.16;5029977;28;20744;-58
2021/12/08 00:46:36;;;;;;;2.30;1.80;;;;;;;3.98;100.00;98268.66;5029883;28;20201;-58
2021/12/08 00:49:04;;;;;;;1.90;1.80;;;;;;;3.97;100.00;98284.09;5029746;28;20233;-59
2021/12/08 00:51:33;;;;;;;1.90;1.80;;;;;;;4.01;100.00;98284.00;5029973;28;20607;-59
2021/12/08 00:54:00;;;;;;;2.20;2.00;;;;;;;3.98;100.00;98278.09;5030098;28;20197;-60
2021/12/08 00:56:27;;;;;;;1.60;1.50;;;;;;;4.02;100.00;98272.00;5029787;28;20197;-59
2021/12/08 00:58:54;;;;;;;1.70;1.60;;;;;;;3.99;100.00;98284.91;5029960;28;20690;-60
2021/12/08 01:01:22;;;;;;;1.97;1.87;;;;;;;4.02;100.00;98277.16;5029892;28;20304;-60
2021/12/08 01:03:49;;;;;;;1.53;1.43;;;;;;;3.98;100.00;98278.94;5030044;28;20236;-60
2021/12/08 01:06:17;;;;;;;1.90;1.80;;;;;;;3.96;100.00;98264.44;5029903;28;20208;-60
2021/12/08 01:08:45;;;;;;;1.97;1.87;;;;;;;4.00;100.00;98260.94;5029875;28;20294;-60
2021/12/08 01:11:17;;;;;;;1.80;1.70;;;;;;;4.08;100.00;98277.00;5029752;28;20201;-58
2021/12/08 01:13:45;;;;;;;1.80;1.70;;;;;;;4.06;100.00;98273.66;5029441;28;20328;-61
2021/12/08 01:16:14;;;;;;;1.90;1.80;;;;;;;4.01;100.00;98268.59;5029570;28;20208;-59
2021/12/08 01:18:41;;;;;;;1.70;1.60;;;;;;;4.02;100.00;98269.44;5029525;28;20259;-58
2021/12/08 01:21:10;;;;;;;1.90;1.80;;;;;;;4.08;100.00;98274.44;5029780;28;20197;-60
2021/12/08 01:23:39;;;;;;;2.00;1.90;;;;;;;4.06;100.00;98265.09;5029678;28;20193;-60
2021/12/08 01:26:09;;;;;;;2.20;2.10;;;;;;;4.05;100.00;98279.66;5029612;28;20201;-60
2021/12/08 01:28:36;;;;;;;1.83;1.73;;;;;;;4.04;100.00;98280.53;5029526;28;20198;-60
2021/12/08 01:31:04;;;;;;;1.93;1.83;;;;;;;4.07;100.00;98277.88;5031219;28;20297;-59
2021/12/08 01:33:33;;;;;;;1.87;1.77;;;;;;;4.04;100.00;98280.53;5033123;28;20231;-59
2021/12/08 01:36:02;;;;;;;2.10;2.00;;;;;;;3.98;100.00;98273.78;5033008;28;20204;-59
2021/12/08 01:38:29;;;;;;;2.00;1.90;;;;;;;3.91;100.00;98274.81;5033105;28;20279;-60
2021/12/08 01:40:56;;;;;;;1.70;1.60;;;;;;;3.76;100.00;98257.19;5032910;28;20201;-60
2021/12/08 01:43:27;;;;;;;2.27;2.07;;;;;;;3.95;100.00;98276.41;5032978;28;20284;-60
2021/12/08 01:46:00;;;;;;;2.00;1.90;;;;;;;3.80;100.00;98253.69;5033417;28;20239;-60
2021/12/08 01:48:30;;;;;;;1.90;1.80;;;;;;;3.98;100.00;98284.06;5032787;28;20226;-60
2021/12/08 01:51:02;;;;;;;1.87;1.77;;;;;;;3.96;100.00;98290.09;5032796;28;20197;-60
2021/12/08 01:53:29;;;;;;;1.90;1.80;;;;;;;3.89;100.00;98286.84;5032684;28;20222;-60
2021/12/08 01:55:56;;;;;;;2.50;2.30;;;;;;;3.96;100.00;98285.81;5032638;28;20288;-59
2021/12/08 01:58:25;;;;;;;2.30;2.20;;;;;;;3.82;100.00;98264.75;5032964;28;20692;-59
2021/12/08 02:00:57;;;;;;;2.00;1.80;;;;;;;3.95;100.00;98291.00;5032734;28;20196;-59
2021/12/08 02:03:26;;;;;;;2.30;2.10;;;;;;;3.97;100.00;98295.22;5032721;28;20203;-59
2021/12/08 02:05:54;;;;;;;2.30;2.20;;;;;;;3.90;100.00;98297.94;5032912;28;20197;-58
2021/12/08 02:08:22;;;;;;;2.10;2.00;;;;;;;3.93;100.00;98300.47;5032488;28;20201;-59
2021/12/08 02:10:50;;;;;;;2.17;1.97;;;;;;;3.88;100.00;98307.41;5032369;28;20284;-59
2021/12/08 02:13:17;;;;;;;1.70;1.60;;;;;;;3.91;100.00;98303.06;5032426;28;20232;-58
2021/12/08 02:15:47;;;;;;;1.70;1.60;;;;;;;3.96;100.00;98298.66;5032317;28;20207;-59
2021/12/08 02:18:16;;;;;;;2.00;1.90;;;;;;;4.00;100.00;98307.13;5032340;28;20266;-59
2021/12/08 02:20:46;;;;;;;2.20;2.10;;;;;;;3.93;100.00;98313.28;5032277;28;20748;-58
2021/12/08 02:23:15;;;;;;;1.70;1.60;;;;;;;3.88;100.00;98318.50;5032382;28;20360;-58
2021/12/08 02:25:42;;;;;;;2.47;2.27;;;;;;;3.87;100.00;98316.81;5032081;28;20208;-60
2021/12/08 02:28:10;;;;;;;1.80;1.70;;;;;;;3.98;100.00;98314.88;5032137;28;20239;-59
2021/12/08 02:30:43;;;;;;;2.20;2.10;;;;;;;3.89;100.00;98294.53;5032052;28;20719;-59
2021/12/08 02:47:14;;;;;;;2.00;1.90;;;;;;;4.35;100.00;98335.44;5031805;28;20751;-60
2021/12/08 02:49:42;;;;;;;1.83;1.73;;;;;;;4.36;100.00;98337.13;5031720;28;20197;-60
2021/12/08 02:52:11;;;;;;;2.10;2.00;;;;;;;4.36;100.00;98339.72;5031490;28;20245;-60
2021/12/08 02:54:42;;;;;;;2.17;2.07;;;;;;;4.43;100.00;98342.97;5031576;28;20284;-59
2021/12/08 02:57:10;;;;;;;1.73;1.63;;;;;;;4.19;100.00;98310.97;5031787;28;20219;-59
2021/12/08 02:59:41;;;;;;;2.00;1.90;;;;;;;4.29;100.00;98343.28;5031482;28;20240;-60
2021/12/08 03:02:09;;;;;;;1.97;1.87;;;;;;;4.34;100.00;98353.47;5031414;28;20208;-59
2021/12/08 03:04:36;;;;;;;2.03;1.93;;;;;;;4.33;100.00;98352.63;5031303;28;20200;-59
2021/12/08 03:07:03;;;;;;;5.80;2.00;;;;;;;4.36;100.00;98367.97;5031338;28;20193;-60
2021/12/08 03:09:30;;;;;;;2.63;2.23;;;;;;;4.38;100.00;98366.22;5031314;28;20205;-60
2021/12/08 03:12:00;;;;;;;1.87;1.77;;;;;;;4.43;100.00;98366.09;5031320;28;20209;-59
2021/12/08 03:14:29;;;;;;;2.10;2.00;;;;;;;4.38;100.00;98375.63;5031323;28;20224;-57
2021/12/08 03:16:59;;;;;;;2.23;2.03;;;;;;;4.38;100.00;98379.06;5031179;28;20263;-60
2021/12/08 03:19:27;;;;;;;2.20;2.00;;;;;;;4.36;100.00;98380.81;5031485;28;20239;-58
2021/12/08 03:21:55;;;;;;;2.00;1.90;;;;;;;4.34;100.00;98380.00;5031100;28;20229;-59
2021/12/08 03:24:27;;;;;;;1.87;1.77;;;;;;;4.19;100.00;98356.34;5031123;28;20205;-59
2021/12/08 03:27:06;;;;;;;2.00;1.90;;;;;;;4.31;100.00;98379.19;5031050;28;20255;-59
2021/12/08 03:29:45;;;;;;;1.90;1.80;;;;;;;4.21;100.00;98382.84;5030562;28;20201;-59
2021/12/08 03:32:15;;;;;;;1.97;1.87;;;;;;;4.27;100.00;98395.56;5030945;28;20362;-59
2021/12/08 03:34:51;;;;;;;2.07;1.90;;;;;;;4.28;100.00;98397.28;5031054;28;20793;-59
2021/12/08 03:37:21;;;;;;;2.23;2.13;;;;;;;4.30;100.00;98401.47;5030842;28;20288;-59
2021/12/08 03:39:50;;;;;;;2.70;2.50;;;;;;;4.29;100.00;98401.50;5030668;28;20197;-59
2021/12/08 03:42:18;;;;;;;2.60;1.83;;;;;;;4.30;100.00;98398.06;5030702;28;20239;-59
2021/12/08 03:44:46;;;;;;;2.40;2.30;;;;;;;4.30;100.00;98398.91;5030564;28;20229;-59
2021/12/08 03:47:16;;;;;;;2.20;2.10;;;;;;;4.23;100.00;98392.22;5030633;28;20295;-59
2021/12/08 03:49:45;;;;;;;2.40;2.30;;;;;;;4.29;100.00;98402.34;5030554;28;20201;-60
2021/12/08 03:52:12;;;;;;;2.30;2.20;;;;;;;4.29;100.00;98406.63;5030650;28;20207;-59
2021/12/08 03:54:39;;;;;;;2.97;2.50;;;;;;;4.28;100.00;98410.13;5029642;28;20231;-60
2021/12/08 03:57:07;;;;;;;3.00;2.60;;;;;;;4.19;100.00;98406.00;5030424;28;20203;-60
2021/12/08 03:59:34;;;;;;;2.60;2.50;;;;;;;4.27;100.00;98416.97;5030553;28;20197;-60
2021/12/08 04:02:03;;;;;;;2.70;2.50;;;;;;;4.18;100.00;98396.59;5029953;28;20193;-59
2021/12/08 04:04:40;;;;;;;2.73;2.53;;;;;;;4.35;100.00;98422.78;5029676;28;20201;-59
2021/12/08 04:07:07;;;;;;;3.40;3.10;;;;;;;4.41;100.00;98421.78;5010476;28;20626;-60
2021/12/08 04:09:39;;;;;;;3.50;3.20;;;;;;;4.43;100.00;98426.91;5010809;28;20727;-60
2021/12/08 04:12:07;;;;;;;2.90;2.70;;;;;;;4.60;100.00;98430.81;5010359;28;20233;-60
2021/12/08 04:14:37;;;;;;;2.77;2.57;;;;;;;4.46;100.00;98408.84;5010491;28;20221;-60
2021/12/08 04:17:10;;;;;;;3.40;3.10;;;;;;;4.45;100.00;98405.44;5010608;28;20285;-59
2021/12/08 04:19:38;;;;;;;3.00;2.80;;;;;;;4.59;100.00;98441.97;5010224;28;20209;-60
2021/12/08 04:22:09;;;;;;;3.30;3.10;;;;;;;4.60;100.00;98428.22;5028358;28;20201;-60
2021/12/08 04:24:37;;;;;;;3.03;2.83;;;;;;;4.65;100.00;98438.41;5029956;28;20189;-59
2021/12/08 04:27:08;;;;;;;2.80;2.60;;;;;;;4.61;100.00;98435.06;5030336;28;20696;-57
2021/12/08 04:29:38;;;;;;;3.43;3.13;;;;;;;4.70;100.00;98434.84;5030030;28;20669;-58
2021/12/08 04:32:10;;;;;;;3.43;3.13;;;;;;;4.78;100.00;98433.81;5030012;28;20216;-59
2021/12/08 04:34:40;;;;;;;3.47;3.27;;;;;;;4.70;100.00;98436.59;5030232;28;20780;-61
2021/12/08 04:37:19;;;;;;;3.73;3.43;;;;;;;4.72;100.00;98439.97;5030598;28;20236;-61
2021/12/08 04:39:57;;;;;;;3.73;3.43;;;;;;;4.75;100.00;98445.00;5030391;28;20586;-62
2021/12/08 04:42:38;;;;;;;3.17;2.97;;;;;;;4.78;100.00;98447.53;5030116;28;20200;-61
2021/12/08 04:45:13;;;;;;;3.80;3.50;;;;;;;4.69;100.00;98437.47;5030115;28;20627;-60
2021/12/08 04:48:02;;;;;;;3.37;3.13;;;;;;;4.74;100.00;98441.59;5029655;28;20212;-60
2021/12/08 04:50:46;;;;;;;3.70;3.50;;;;;;;4.78;100.00;98467.25;5029765;28;20591;-59
2021/12/08 04:53:30;;;;;;;6.63;3.57;;;;;;;4.80;100.00;98462.91;5025898;28;20233;-60
2021/12/08 05:02:05;;;;;;;3.50;3.30;;;;;;;4.75;100.00;98483.56;5029458;28;20197;-60
2021/12/08 05:04:43;;;;;;;3.90;3.60;;;;;;;4.81;100.00;98487.75;5030491;28;20243;-59
2021/12/08 05:07:30;;;;;;;4.13;3.73;;;;;;;4.81;100.00;98486.03;5033500;28;20288;-62
2021/12/08 05:09:59;;;;;;;4.30;3.97;;;;;;;4.70;100.00;98475.13;5030152;28;20203;-60
2021/12/08 05:12:30;;;;;;;4.73;4.33;;;;;;;4.72;100.00;98496.50;5032387;28;20233;-60
2021/12/08 05:15:01;;;;;;;4.70;4.40;;;;;;;4.69;100.00;98497.41;5031922;28;20704;-60
2021/12/08 05:17:32;;;;;;;4.33;4.00;;;;;;;4.70;100.00;98500.84;5031795;28;20603;-61
2021/12/08 05:20:06;;;;;;;4.70;4.30;;;;;;;4.72;100.00;98505.06;5031556;28;20228;-61
2021/12/08 05:22:38;;;;;;;4.47;4.17;;;;;;;4.71;100.00;98505.94;5030896;28;20223;-60
2021/12/08 05:25:11;;;;;;;4.77;3.97;;;;;;;4.55;100.00;98476.31;5029376;28;20213;-60
2021/12/08 05:27:44;;;;;;;5.40;4.10;;;;;;;4.82;100.00;98505.72;5031929;28;20239;-60
2021/12/08 05:30:15;;;;;;;4.60;4.20;;;;;;;4.87;100.00;98511.56;5031620;28;20222;-60
2021/12/08 05:32:42;;;;;;;3.90;3.60;;;;;;;4.86;100.00;98512.47;5031458;28;20640;-61
2021/12/08 05:35:13;;;;;;;4.47;4.17;;;;;;;4.92;100.00;98514.91;5031876;28;20243;-61
2021/12/08 05:37:41;;;;;;;4.33;4.03;;;;;;;4.88;100.00;98518.41;5030546;28;20228;-61
2021/12/08 05:40:12;;;;;;;4.40;4.10;;;;;;;4.67;100.00;98481.19;5031494;28;20217;-60
2021/12/08 05:42:39;;;;;;;4.50;4.20;;;;;;;4.92;100.00;98524.34;5031482;28;20222;-59
2021/12/08 05:45:11;;;;;;;4.30;3.90;;;;;;;4.83;100.00;98507.41;5031505;28;20818;-60
2021/12/08 05:47:38;;;;;;;4.70;4.30;;;;;;;4.99;100.00;98531.88;5031487;28;20662;-61
2021/12/08 05:50:07;;;;;;;4.70;4.30;;;;;;;4.95;100.00;98532.00;5031867;28;20726;-60
2021/12/08 05:52:35;;;;;;;4.30;4.00;;;;;;;4.86;100.00;98525.31;5031801;28;20237;-61
2021/12/08 05:55:04;;;;;;;4.30;4.00;;;;;;;4.59;100.00;98489.94;5051442;28;20225;-60
2021/12/08 05:57:34;;;;;;;4.60;4.20;;;;;;;4.80;100.00;98525.47;5033969;28;20223;-60
2021/12/08 06:00:06;;;;;;;5.87;5.37;;;;;;;4.81;100.00;98534.88;5031164;28;20221;-60
2021/12/08 06:02:37;;;;;;;7.20;5.57;;;;;;;4.82;100.00;98528.00;5028134;28;20217;-60
2021/12/08 06:05:07;;;;;;;5.73;5.13;;;;;;;4.91;100.00;98545.78;5032634;28;20339;-60
2021/12/08 06:07:36;;;;;;;5.93;5.43;;;;;;;4.91;100.00;98544.06;5032393;28;20634;-60
2021/12/08 06:10:08;;;;;;;7.47;5.57;;;;;;;4.90;100.00;98564.66;5032067;28;20197;-61
2021/12/08 06:12:36;;;;;;;7.23;6.47;;;;;;;4.91;100.00;98554.34;5031500;28;20217;-60
2021/12/08 06:15:04;;;;;;;7.23;6.30;;;;;;;4.96;100.00;98560.25;5030971;28;20220;-59
2021/12/08 06:17:33;;;;;;;9.87;8.30;;;;;;;4.99;100.00;98569.59;5030527;28;20197;-60
2021/12/08 06:20:02;;;;;;;8.37;7.47;;;;;;;4.90;100.00;98567.25;5031444;28;20202;-59
2021/12/08 06:22:31;;;;;;;6.80;6.27;;;;;;;4.98;100.00;98575.63;5031826;28;20229;-60
2021/12/08 06:24:59;;;;;;;6.37;5.77;;;;;;;5.09;100.00;98576.25;5032248;28;20196;-59
2021/12/08 06:27:26;;;;;;;8.03;6.17;;;;;;;5.05;100.00;98572.91;5032066;28;20201;-59
2021/12/08 06:29:54;;;;;;;12.07;8.37;;;;;;;5.09;100.00;98586.53;5031521;28;20578;-59
2021/12/08 06:32:21;;;;;;;7.10;6.40;;;;;;;5.17;100.00;98594.09;5031814;28;20197;-61
2021/12/08 06:34:52;;;;;;;9.20;8.07;;;;;;;5.19;100.00;98592.34;5031818;28;20218;-61
2021/12/08 06:37:24;;;;;;;10.63;7.53;;;;;;;5.21;100.00;98590.56;5031492;28;20414;-60
2021/12/08 06:39:57;;;;;;;8.13;7.33;;;;;;;5.32;100.00;98601.47;5031683;28;20237;-61
2021/12/08 06:42:31;;;;;;;16.87;8.33;;;;;;;5.40;100.00;98604.72;5030537;28;20202;-60
2021/12/08 06:44:59;;;;;;;17.90;8.10;;;;;;;5.53;100.00;98608.69;5031787;28;20198;-60
2021/12/08 06:47:29;;;;;;;11.07;8.57;;;;;;;5.59;100.00;98618.84;5030541;28;20277;-60
2021/12/08 06:49:59;;;;;;;12.43;7.77;;;;;;;5.61;100.00;98614.53;5030595;28;20193;-61
2021/12/08 06:52:29;;;;;;;11.17;7.70;;;;;;;5.56;100.00;98618.91;5027899;28;20193;-60
2021/12/08 06:55:00;;;;;;;16.20;8.07;;;;;;;5.51;100.00;98625.06;5030232;28;20718;-61
2021/12/08 06:57:34;;;;;;;14.00;8.50;;;;;;;5.61;100.00;98621.41;5027631;28;20197;-60
2021/12/08 07:00:15;;;;;;;10.87;8.37;;;;;;;5.68;100.00;98618.63;5030247;28;20201;-61
2021/12/08 07:05:53;;;;;;;97.40;14.37;;;;;;;5.89;100.00;98639.63;5021675;28;20217;-61
2021/12/08 07:08:20;;;;;;;43.90;12.10;;;;;;;5.98;100.00;98635.09;5028677;28;20664;-61
2021/12/08 07:10:49;;;;;;;26.70;10.67;;;;;;;5.69;100.00;98568.84;5028495;28;20217;-61
2021/12/08 07:13:21;;;;;;;16.77;9.90;;;;;;;5.98;100.00;98623.97;5029153;28;20743;-60
2021/12/08 07:15:52;;;;;;;16.63;10.33;;;;;;;5.96;100.00;98638.63;5029195;28;20236;-61
2021/12/08 07:18:25;;;;;;;16.30;10.30;;;;;;;5.97;100.00;98636.00;5030520;28;20313;-61
2021/12/08 07:20:56;;;;;;;17.43;11.87;;;;;;;6.07;100.00;98628.91;5030065;28;20279;-61
2021/12/08 07:23:26;;;;;;;15.47;10.67;;;;;;;6.17;100.00;98641.50;5039266;28;20224;-61
2021/12/08 07:25:57;;;;;;;274.20;27.53;;;;;;;6.17;100.00;98653.53;5044418;28;20586;-60
2021/12/08 07:28:28;;;;;;;152.23;20.43;;;;;;;6.30;100.00;98649.78;5030832;28;20201;-60
2021/12/08 07:30:59;;;;;;;49.43;12.70;;;;;;;6.44;100.00;98652.84;5030811;28;20201;-60
2021/12/08 07:33:27;;;;;;;21.23;10.93;;;;;;;6.43;100.00;98651.13;5030732;28;20243;-60
2021/12/08 07:35:57;;;;;;;20.37;12.23;;;;;;;6.49;100.00;98652.72;5030503;28;20223;-60
2021/12/08 07:38:28;;;;;;;18.50;12.03;;;;;;;6.53;100.00;98656.94;5030602;28;20284;-60
2021/12/08 07:41:02;;;;;;;21.10;12.03;;;;;;;6.62;100.00;98672.16;5031005;28;20568;-63
2021/12/08 07:43:31;;;;;;;23.77;12.87;;;;;;;6.70;100.00;98659.03;5030379;28;20717;-60
2021/12/08 07:46:03;;;;;;;16.53;12.30;;;;;;;6.78;100.00;98657.09;5030487;28;20200;-60
2021/12/08 07:48:37;;;;;;;16.43;11.83;;;;;;;6.59;100.00;98656.75;5030689;28;20303;-59
2021/12/08 07:51:08;;;;;;;18.33;12.50;;;;;;;6.80;100.00;98655.31;5030676;28;20200;-61
2021/12/08 07:53:36;;;;;;;16.17;12.03;;;;;;;6.77;100.00;98639.94;5030894;28;20648;-61
2021/12/08 07:56:09;;;;;;;16.43;12.03;;;;;;;6.89;100.00;98665.38;5030463;28;20292;-60
2021/12/08 07:58:41;;;;;;;18.43;13.03;;;;;;;6.93;100.00;98665.25;5030552;28;20581;-60
2021/12/08 08:01:12;;;;;;;17.50;12.60;;;;;;;7.10;100.00;98669.97;5028067;28;20257;-60
2021/12/08 08:03:41;;;;;;;17.33;12.33;;;;;;;7.14;100.00;98671.56;5029972;28;20673;-60
2021/12/08 08:06:12;;;;;;;17.63;13.13;;;;;;;7.24;100.00;98674.72;5030356;28;20232;-60
2021/12/08 08:08:39;;;;;;;21.10;12.87;;;;;;;7.04;100.00;98675.28;5029194;28;20203;-61
2021/12/08 08:11:10;;;;;;;18.40;12.43;;;;;;;7.05;100.00;98679.56;5029512;28;20201;-64
2021/12/08 08:13:39;;;;;;;18.43;12.43;;;;;;;7.19;100.00;98674.00;5030001;28;20243;-65
2021/12/08 08:16:12;;;;;;;47.57;18.90;;;;;;;7.20;100.00;98675.72;5029913;28;20481;-65
2021/12/08 08:18:47;;;;;;;25.90;14.17;;;;;;;7.29;100.00;98675.44;5030089;28;20207;-65
2021/12/08 08:21:18;;;;;;;19.13;12.77;;;;;;;7.25;100.00;98672.09;5030165;28;20197;-64
2021/12/08 08:23:46;;;;;;;18.57;13.37;;;;;;;6.95;100.00;98657.50;5030052;28;20193;-64
2021/12/08 08:26:15;;;;;;;18.73;12.87;;;;;;;7.10;100.00;98680.28;5030178;28;20194;-65
2021/12/08 08:28:48;;;;;;;54.33;16.07;;;;;;;7.24;100.00;98688.47;5030298;28;20197;-65
2021/12/08 08:31:18;;;;;;;23.57;12.77;;;;;;;7.20;100.00;98697.19;5030079;28;20700;-65
2021/12/08 08:33:46;;;;;;;19.77;12.97;;;;;;;7.24;100.00;98693.63;5029867;28;20209;-64
2021/12/08 08:36:17;;;;;;;21.27;13.00;;;;;;;7.20;100.00;98702.38;5030105;28;20316;-63
2021/12/08 08:38:50;;;;;;;18.63;13.53;;;;;;;7.16;100.00;98699.91;5030095;28;20208;-61
2021/12/08 08:41:23;;;;;;;183.97;23.60;;;;;;;7.15;100.00;98680.13;5033922;28;20697;-65
2021/12/08 08:43:54;;;;;;;53.47;15.70;;;;;;;7.05;100.00;98687.31;5033915;28;20193;-61
2021/12/08 08:46:26;;;;;;;37.20;15.60;;;;;;;7.13;100.00;98690.50;5033992;28;20590;-61
2021/12/08 08:48:57;;;;;;;22.40;14.20;;;;;;;7.19;100.00;98684.34;5033803;28;20205;-62
2021/12/08 08:51:32;;;;;;;24.83;14.00;;;;;;;7.00;100.00;98694.31;5033731;28;20292;-62
2021/12/08 08:54:07;;;;;;;21.20;13.77;;;;;;;7.15;100.00;98691.31;5033872;28;20558;-62
2021/12/08 08:56:38;;;;;;;22.33;14.50;;;;;;;7.25;100.00;98689.31;5033959;28;20200;-61
2021/12/08 08:59:12;;;;;;;20.00;14.27;;;;;;;7.32;100.00;98696.00;5032947;28;20202;-58
2021/12/08 09:01:44;;;;;;;19.27;13.27;;;;;;;7.35;100.00;98689.88;5013913;28;20198;-60
2021/12/08 09:04:15;;;;;;;23.87;15.87;;;;;;;7.41;100.00;98694.88;5014151;28;20589;-59
2021/12/08 09:06:47;;;;;;;25.47;13.50;;;;;;;7.42;100.00;98697.44;5013961;28;20256;-60
2021/12/08 09:09:18;;;;;;;19.50;13.07;;;;;;;7.33;100.00;98678.78;5013742;28;20194;-61
2021/12/08 09:11:50;;;;;;;27.00;12.83;;;;;;;7.29;100.00;98665.13;5013978;28;20229;-61
2021/12/08 09:14:22;;;;;;;44.07;14.23;;;;;;;7.28;100.00;98666.84;5013559;28;20228;-61
2021/12/08 09:16:54;;;;;;;27.90;13.60;;;;;;;7.24;100.00;98672.13;5013588;28;20736;-60
2021/12/08 09:19:24;;;;;;;43.30;14.10;;;;;;;7.08;100.00;98658.84;5013655;28;20202;-61
2021/12/08 09:22:01;;;;;;;57.40;16.17;;;;;;;7.20;100.00;98679.13;5020184;28;20198;-59
2021/12/08 09:24:36;;;;;;;30.90;13.37;;;;;;;7.10;100.00;98674.28;5033440;28;20605;-60
2021/12/08 09:27:08;;;;;;;26.37;12.57;;;;;;;7.00;100.00;98681.41;5030892;28;20193;-59
2021/12/08 09:29:44;;;;;;;21.67;14.43;;;;;;;7.09;100.00;98672.59;5016328;28;20610;-60
2021/12/08 09:32:17;;;;;;;21.47;14.13;;;;;;;6.95;100.00;98677.28;5032576;28;20575;-61
2021/12/08 09:34:54;;;;;;;20.20;13.63;;;;;;;6.72;100.00;98672.75;5032679;28;20263;-60
2021/12/08 09:37:24;;;;;;;19.30;13.10;;;;;;;6.61;100.00;98644.66;5032286;28;20227;-59
2021/12/08 09:39:54;;;;;;;20.80;14.00;;;;;;;6.85;100.00;98658.63;5032803;28;20227;-60
2021/12/08 09:42:25;;;;;;;18.47;13.93;;;;;;;6.81;100.00;98644.97;5032697;28;20221;-59
2021/12/08 09:44:56;;;;;;;89.03;19.00;;;;;;;6.82;100.00;98648.38;5032405;28;20221;-60
2021/12/08 09:47:28;;;;;;;52.80;17.77;;;;;;;6.83;100.00;98653.50;5032731;28;20316;-63
2021/12/08 09:49:56;;;;;;;27.07;16.27;;;;;;;6.88;100.00;98650.81;5032351;28;20221;-61
2021/12/08 09:52:27;;;;;;;28.73;15.23;;;;;;;6.74;100.00;98642.59;5030671;28;20225;-61
2021/12/08 09:54:54;;;;;;;29.67;14.90;;;;;;;6.89;100.00;98665.38;5039760;28;20733;-59
2021/12/08 09:57:21;;;;;;;18.83;12.70;;;;;;;6.89;100.00;98653.34;5052232;28;20311;-64
2021/12/08 09:59:48;;;;;;;20.53;14.70;;;;;;;7.02;100.00;98666.72;5052345;28;20300;-60
2021/12/08 10:02:25;;;;;;;19.73;13.40;;;;;;;7.09;100.00;98660.53;5052407;28;20225;-60
2021/12/08 10:04:53;;;;;;;18.50;13.07;;;;;;;7.28;100.00;98664.28;5051994;28;20307;-59
2021/12/08 10:07:20;;;;;;;18.30;13.33;;;;;;;7.31;100.00;98665.91;5051795;28;20755;-60
2021/12/08 10:09:50;;;;;;;19.40;12.67;;;;;;;7.19;100.00;98643.91;5051738;28;20220;-59
2021/12/08 10:12:17;;;;;;;17.77;13.27;;;;;;;7.40;100.00;98668.22;5052147;28;20699;-59
2021/12/08 10:14:46;;;;;;;18.33;13.40;;;;;;;7.54;100.00;98667.81;5051649;28;20324;-59
2021/12/08 10:17:14;;;;;;;17.57;12.43;;;;;;;7.63;100.00;98662.38;5052081;28;20220;-59
2021/12/08 10:19:43;;;;;;;17.90;13.27;;;;;;;7.69;100.00;98644.09;5051771;28;20221;-59
2021/12/08 10:22:18;;;;;;;18.80;13.00;;;;;;;7.84;100.00;98658.28;5033105;28;20583;-58
2021/12/08 10:25:02;;;;;;;13.87;11.37;;;;;;;7.80;100.00;98654.09;5032439;28;20625;-58
2021/12/08 10:27:29;;;;;;;17.00;13.00;;;;;;;7.83;100.00;98652.25;5032254;28;20197;-59
2021/12/08 10:30:19;;;;;;;15.50;12.23;;;;;;;7.99;100.00;98653.47;5031992;28;20292;-59
2021/12/08 10:32:46;;;;;;;17.77;12.53;;;;;;;8.06;100.00;98651.53;5031958;28;20244;-59
2021/12/08 10:35:45;;;;;;;19.23;13.07;;;;;;;8.03;99.92;98649.88;5031720;28;20229;-60
2021/12/08 10:38:14;;;;;;;22.70;15.73;;;;;;;8.10;100.00;98655.72;5031986;28;20205;-60
2021/12/08 10:40:58;;;;;;;17.27;12.77;;;;;;;8.10;100.00;98663.47;5031767;28;20209;-61
2021/12/08 10:43:25;;;;;;;17.97;12.53;;;;;;;8.15;100.00;98658.13;5031764;28;20201;-61
2021/12/08 10:46:01;;;;;;;15.37;11.43;;;;;;;8.31;98.96;98659.31;5031843;28;20318;-60
2021/12/08 10:48:34;;;;;;;15.40;12.03;;;;;;;8.41;99.75;98660.75;5031900;28;20592;-60
2021/12/08 10:56:40;;;;;;;15.27;12.17;;;;;;;8.41;97.90;98655.56;5030291;28;20228;-61
2021/12/08 10:59:07;;;;;;;15.77;12.40;;;;;;;8.35;98.80;98656.59;5029289;28;20203;-61
2021/12/08 11:01:35;;;;;;;14.00;11.07;;;;;;;8.30;98.97;98648.13;5023406;28;20208;-61
2021/12/08 11:04:05;;;;;;;14.20;11.07;;;;;;;8.31;97.90;98649.00;5030671;28;20198;-60
2021/12/08 11:06:35;;;;;;;20.77;11.53;;;;;;;8.29;97.91;98653.34;5031048;28;20679;-61
2021/12/08 11:09:02;;;;;;;18.60;11.30;;;;;;;8.29;98.20;98650.78;5031322;28;20595;-61
2021/12/08 11:11:32;;;;;;;27.07;12.37;;;;;;;8.11;99.52;98659.16;5031230;28;20204;-64
2021/12/08 11:14:01;;;;;;;29.73;15.87;;;;;;;8.08;100.00;98657.50;5030933;28;20299;-62
2021/12/08 11:16:30;;;;;;;27.80;13.23;;;;;;;8.15;100.00;98647.78;5030772;28;20221;-62
2021/12/08 11:19:01;;;;;;;21.40;14.97;;;;;;;8.29;100.00;98671.47;5031365;28;20577;-62
2021/12/08 11:21:35;;;;;;;19.20;12.83;;;;;;;8.30;100.00;98660.22;5031332;28;20251;-62
2021/12/08 11:24:05;;;;;;;23.93;16.33;;;;;;;8.39;100.00;98652.19;5030920;28;20197;-61
2021/12/08 11:26:37;;;;;;;19.00;13.83;;;;;;;8.32;99.66;98648.13;5031097;28;20296;-62
2021/12/08 11:29:06;;;;;;;18.87;12.50;;;;;;;8.31;99.23;98656.75;5030779;28;20232;-60
2021/12/08 11:31:37;;;;;;;14.87;11.10;;;;;;;8.30;100.00;98660.22;5030818;28;20203;-60
2021/12/08 11:34:10;;;;;;;75.30;15.63;;;;;;;8.26;99.28;98651.72;5030914;28;20197;-60
2021/12/08 11:36:39;;;;;;;115.23;18.50;;;;;;;8.19;99.53;98654.56;5030711;28;20225;-60
2021/12/08 11:39:11;;;;;;;40.60;14.23;;;;;;;8.11;100.00;98654.81;5030458;28;20215;-59
2021/12/08 11:41:39;;;;;;;31.80;13.23;;;;;;;7.94;99.72;98636.41;5030887;28;20295;-60
2021/12/08 11:44:10;;;;;;;27.63;11.00;;;;;;;8.12;100.00;98659.09;5030766;28;20288;-59
2021/12/08 11:46:47;;;;;;;12.87;10.30;;;;;;;8.08;99.50;98654.91;5030778;28;20208;-60
2021/12/08 11:49:15;;;;;;;14.37;11.73;;;;;;;8.05;100.00;98661.91;5031051;28;20626;-60
2021/12/08 11:51:58;;;;;;;17.43;12.00;;;;;;;7.94;100.00;98639.84;5029860;28;20204;-62
2021/12/08 11:54:32;;;;;;;13.57;10.87;;;;;;;7.95;99.53;98657.03;5027297;28;20208;-61
2021/12/08 11:57:04;;;;;;;13.93;10.83;;;;;;;7.96;99.33;98658.75;5029482;28;20221;-61
2021/12/08 11:59:31;;;;;;;15.47;11.20;;;;;;;7.84;99.20;98646.22;5028856;28;20327;-62
2021/12/08 12:01:58;;;;;;;16.23;12.00;;;;;;;7.91;100.00;98652.84;5030115;28;20201;-62
2021/12/08 12:04:25;;;;;;;32.70;12.80;;;;;;;7.97;100.00;98659.59;5029883;28;20201;-62
2021/12/08 12:06:53;;;;;;;18.37;12.20;;;;;;;8.01;100.00;98648.25;5029909;28;20200;-61
2021/12/08 12:09:20;;;;;;;16.90;12.63;;;;;;;8.03;100.00;98649.03;5030437;28;20592;-61
2021/12/08 12:11:52;;;;;;;19.17;13.97;;;;;;;8.15;100.00;98663.31;5030387;28;20197;-60
2021/12/08 12:14:21;;;;;;;18.53;13.40;;;;;;;8.13;100.00;98663.34;5029335;28;20320;-61